M I D A S
Marine Information and Data Acquisition System
Tripno 664 of the Zeeleeuw from 2004-03-10 07:42:12 to 2004-03-10 18:44:59
Back to CruiseResearch ActivitiesStationsMapUnderway DataData graphs

EquipmentUnitsComment
TimeDGPSUTC
LatitudeDGPSDM.mWGS84
LongitudeDGPSDM.mWGS84
HeadingGyrodeg 
SOGDGPSknotsSpeed over ground
COGDGPSdegCourse over ground
DepthEcho soundermeters200 kHz
Missing or incorrect values are displayed as -999
Navigation data collected by the RV Zeeleeuw from 2004-03-10 07:42:12 to 2004-03-10 18:44:59
                                                                                    Next 1000 lines
Time Latitude Longitude Heading SOG COG Depth
2004-03-10 07:42:20 51°13.59 2°56.107 121.7 0.1 189 5.6
2004-03-10 07:42:26 51°13.59 2°56.107 120.1 0.1 191 5.6
2004-03-10 07:42:30 51°13.59 2°56.107 118.8 0.1 181 5.7
2004-03-10 07:42:34 51°13.59 2°56.107 117 0.1 181 5.6
2004-03-10 07:42:40 51°13.59 2°56.107 115.4 0.1 239 5.7
2004-03-10 07:42:46 51°13.59 2°56.106 114 0.1 246 5.7
2004-03-10 07:42:50 51°13.59 2°56.106 112.8 0.3 288 5.7
2004-03-10 07:42:54 51°13.59 2°56.105 112.2 0.7 294 5.7
2004-03-10 07:43:00 51°13.59 2°56.102 112.2 0.7 294 5.8
2004-03-10 07:43:06 51°13.591 2°56.098 112.2 1.4 291 5.7
2004-03-10 07:43:10 51°13.592 2°56.094 112.2 2 292 -999
2004-03-10 07:43:16 51°13.594 2°56.088 112.2 2.3 292 -999
2004-03-10 07:43:20 51°13.595 2°56.084 112.3 2.6 292 -999
2004-03-10 07:43:26 51°13.597 2°56.076 112.4 3 291 -999
2004-03-10 07:43:31 51°13.599 2°56.07 112.4 3.1 291 -999
2004-03-10 07:43:36 51°13.6 2°56.063 112.5 3.3 291 -999
2004-03-10 07:43:40 51°13.602 2°56.057 112.5 3.5 290 -999
2004-03-10 07:43:46 51°13.604 2°56.048 112.7 3.6 290 -999
2004-03-10 07:43:51 51°13.605 2°56.04 113.1 3.9 290 -999
2004-03-10 07:43:56 51°13.607 2°56.031 113.7 4 291 -999
2004-03-10 07:44:01 51°13.609 2°56.023 114.7 4.1 291 -999
2004-03-10 07:44:06 51°13.612 2°56.014 116.1 4.4 293 -999
2004-03-10 07:44:11 51°13.614 2°56.005 117.5 4.5 294 -999
2004-03-10 07:44:16 51°13.617 2°55.995 118.6 4.7 295 -999
2004-03-10 07:44:20 51°13.619 2°55.988 119.6 4.9 296 -999
2004-03-10 07:44:26 51°13.623 2°55.976 120.4 5 297 -999
2004-03-10 07:44:31 51°13.626 2°55.966 121.2 5.1 297 -999
2004-03-10 07:44:36 51°13.63 2°55.956 121.5 5.2 298 -999
2004-03-10 07:44:41 51°13.633 2°55.946 121.6 5.2 298 -999
2004-03-10 07:44:46 51°13.636 2°55.935 121.6 5.3 299 -999
2004-03-10 07:44:51 51°13.64 2°55.925 121.6 5.3 299 -999
2004-03-10 07:44:56 51°13.644 2°55.915 121.5 5.4 299 -999
2004-03-10 07:45:01 51°13.647 2°55.904 121.1 5.4 299 -999
2004-03-10 07:45:06 51°13.651 2°55.893 120.3 5.4 298 -999
2004-03-10 07:45:11 51°13.654 2°55.883 119.4 5.4 297 -999
2004-03-10 07:45:16 51°13.658 2°55.872 118.3 5.5 297 -999
2004-03-10 07:45:21 51°13.661 2°55.861 116.8 5.5 296 -999
2004-03-10 07:45:26 51°13.664 2°55.85 115.2 5.5 294 -999
2004-03-10 07:45:31 51°13.667 2°55.839 113.5 5.5 292 -999
2004-03-10 07:45:36 51°13.67 2°55.827 111.5 5.5 291 -999
2004-03-10 07:45:41 51°13.672 2°55.815 109.3 5.5 289 -999
2004-03-10 07:45:46 51°13.674 2°55.804 107 5.5 286 -999
2004-03-10 07:45:51 51°13.676 2°55.792 104.5 5.4 284 -999
2004-03-10 07:45:56 51°13.677 2°55.781 101.9 5.3 282 -999
2004-03-10 07:46:00 51°13.678 2°55.772 99.5 5 280 -999
2004-03-10 07:46:06 51°13.679 2°55.761 97.8 4.2 278 -999
2004-03-10 07:46:11 51°13.68 2°55.754 95.7 3.4 278 -999
2004-03-10 07:46:16 51°13.68 2°55.749 92.9 2.6 276 11.2
2004-03-10 07:46:20 51°13.681 2°55.746 89.6 2 278 11.7
2004-03-10 07:46:26 51°13.681 2°55.744 85.8 1.1 281 12.1
2004-03-10 07:46:30 51°13.682 2°55.743 80.5 0.7 309 12.3
2004-03-10 07:46:35 51°13.682 2°55.743 75.5 0.5 347 12.3
2004-03-10 07:46:40 51°13.683 2°55.744 70.2 0.8 17 12.3
2004-03-10 07:46:46 51°13.686 2°55.746 63.7 1 26 12.2
2004-03-10 07:46:50 51°13.688 2°55.748 56 1.8 30 12.1
2004-03-10 07:46:55 51°13.69 2°55.75 47.9 2.1 28 12.2
2004-03-10 07:47:00 51°13.694 2°55.752 39.8 2.3 20 12.2
2004-03-10 07:47:05 51°13.697 2°55.753 30.5 2.5 15 12
2004-03-10 07:47:10 51°13.701 2°55.754 24.7 2.7 6 12.1
2004-03-10 07:47:12 51°13.703 2°55.754 17.4 2.7 6 12.1
2004-03-10 07:47:20 51°13.709 2°55.753 10.7 3 354 12.1
2004-03-10 07:47:26 51°13.714 2°55.751 4.1 3.1 352 11.8
2004-03-10 07:47:30 51°13.718 2°55.749 357.3 3.4 342 11
2004-03-10 07:47:34 51°13.722 2°55.747 350.5 3.6 338 10.1
2004-03-10 07:47:40 51°13.728 2°55.742 343.2 3.8 335 9.1
2004-03-10 07:47:44 51°13.731 2°55.737 335.5 4.2 328 8.5
2004-03-10 07:47:50 51°13.738 2°55.73 331.9 4.2 328 7.9
2004-03-10 07:47:56 51°13.744 2°55.723 329 4.5 323 8.1
2004-03-10 07:48:00 51°13.748 2°55.718 327.8 4.6 322 7.9
2004-03-10 07:48:06 51°13.754 2°55.709 327.3 4.9 321 7.8
2004-03-10 07:48:10 51°13.759 2°55.704 327.3 5.3 322 7.8
2004-03-10 07:48:16 51°13.766 2°55.695 327.6 5.3 322 7.9
2004-03-10 07:48:20 51°13.771 2°55.688 328 5.7 323 7.8
2004-03-10 07:48:26 51°13.78 2°55.679 328.7 5.9 323 7.9
2004-03-10 07:48:30 51°13.785 2°55.673 329.5 6.3 325 8.1
2004-03-10 07:48:35 51°13.793 2°55.665 330.6 6.4 326 8.1
2004-03-10 07:48:40 51°13.801 2°55.657 331.6 6.4 326 8.4
2004-03-10 07:48:46 51°13.81 2°55.648 333 6.7 328 8.3
2004-03-10 07:48:50 51°13.817 2°55.642 334.4 6.9 330 8.4
2004-03-10 07:48:55 51°13.826 2°55.635 335.6 7 331 8.3
2004-03-10 07:49:00 51°13.835 2°55.627 336.8 7.1 332 8.4
2004-03-10 07:49:04 51°13.842 2°55.622 338 7.2 333 8.2
2004-03-10 07:49:10 51°13.853 2°55.614 339.2 7.3 334 8.1
2004-03-10 07:49:15 51°13.862 2°55.607 340.1 7.4 335 8
2004-03-10 07:49:20 51°13.872 2°55.599 340.1 7.5 334 8.2
2004-03-10 07:49:24 51°13.879 2°55.594 340 7.6 335 8
2004-03-10 07:49:30 51°13.89 2°55.585 340 7.6 335 7.9
2004-03-10 07:49:35 51°13.9 2°55.578 340.1 7.6 335 8
2004-03-10 07:49:40 51°13.91 2°55.571 340.2 7.7 334 8
2004-03-10 07:49:46 51°13.922 2°55.562 340.3 7.8 335 8
2004-03-10 07:49:50 51°13.929 2°55.556 340.6 7.8 335 8.2
2004-03-10 07:49:55 51°13.94 2°55.549 341.4 7.9 336 8.4
2004-03-10 07:50:00 51°13.95 2°55.542 341.8 7.9 336 8.4
2004-03-10 07:50:04 51°13.959 2°55.536 341.8 8 336 8.5
2004-03-10 07:50:10 51°13.971 2°55.528 341.4 8 336 8.5
2004-03-10 07:50:16 51°13.983 2°55.519 341.5 8 336 8.5
2004-03-10 07:50:20 51°13.992 2°55.514 341.8 8 336 8.6
2004-03-10 07:50:25 51°14.002 2°55.506 341.9 8 337 8.6
2004-03-10 07:50:30 51°14.012 2°55.5 342.3 8 337 8.7
2004-03-10 07:50:32 51°14.016 2°55.497 342.6 8 337 8.7
2004-03-10 07:50:40 51°14.032 2°55.485 342.4 8 336 8.9
2004-03-10 07:50:46 51°14.044 2°55.476 341.5 8 335 8.9
2004-03-10 07:50:50 51°14.052 2°55.47 341.1 8 335 -999
2004-03-10 07:50:56 51°14.064 2°55.462 341 8 335 8.9
2004-03-10 07:51:00 51°14.072 2°55.456 341.1 8 335 8.9
2004-03-10 07:51:06 51°14.084 2°55.446 341.1 8 335 8.9
2004-03-10 07:51:10 51°14.092 2°55.44 340.6 8 334 8.9
2004-03-10 07:51:15 51°14.102 2°55.433 340.2 8 334 8.8
2004-03-10 07:51:20 51°14.112 2°55.425 340.1 8 335 8.9
2004-03-10 07:51:26 51°14.124 2°55.416 340.2 8.1 334 8.9
2004-03-10 07:51:30 51°14.132 2°55.409 340.2 8.2 333 8.9
2004-03-10 07:51:36 51°14.145 2°55.399 339.2 8.2 333 8.9
2004-03-10 07:51:40 51°14.153 2°55.392 338.2 8.4 332 8.9
2004-03-10 07:51:46 51°14.165 2°55.38 337.7 8.6 331 8.9
2004-03-10 07:51:50 51°14.173 2°55.372 336.9 8.8 330 8.9
2004-03-10 07:51:55 51°14.184 2°55.362 336 9 329 8.8
2004-03-10 07:52:00 51°14.195 2°55.351 334.7 9.2 328 8.8
2004-03-10 07:52:06 51°14.208 2°55.336 333.4 9.6 326 8.8
2004-03-10 07:52:10 51°14.217 2°55.326 332.1 9.7 325 8.8
2004-03-10 07:52:16 51°14.231 2°55.309 329.8 10.1 322 9.5
2004-03-10 07:52:20 51°14.239 2°55.297 328.3 10.5 320 9.7
2004-03-10 07:52:26 51°14.253 2°55.277 325.8 10.6 319 8.8
2004-03-10 07:52:30 51°14.261 2°55.264 323.6 11 315 8.8
2004-03-10 07:52:34 51°14.27 2°55.249 321.1 11.2 314 8.8
2004-03-10 07:52:40 51°14.282 2°55.226 318.8 11.4 312 8.7
2004-03-10 07:52:44 51°14.291 2°55.21 317.2 11.6 310 8.9
2004-03-10 07:52:50 51°14.303 2°55.186 315.8 11.7 309 8.8
2004-03-10 07:52:55 51°14.313 2°55.166 315.4 11.7 309 8.7
2004-03-10 07:53:00 51°14.324 2°55.145 315.5 11.9 309 -999
2004-03-10 07:53:06 51°14.336 2°55.121 315.1 12 309 8.7
2004-03-10 07:53:10 51°14.345 2°55.104 315.1 12.1 309 9.1
2004-03-10 07:53:15 51°14.355 2°55.083 315.2 12.1 309 8.8
2004-03-10 07:53:20 51°14.366 2°55.062 315.2 12.1 309 9.1
2004-03-10 07:53:26 51°14.378 2°55.037 314.9 12.1 308 8.9
2004-03-10 07:53:30 51°14.386 2°55.019 314.6 12.3 306 9.5
2004-03-10 07:53:35 51°14.396 2°54.997 313.5 12.3 306 9.7
2004-03-10 07:53:40 51°14.406 2°54.975 312.7 12.4 305 9.1
2004-03-10 07:53:44 51°14.413 2°54.956 311.1 12.4 303 9
2004-03-10 07:53:50 51°14.424 2°54.928 310.1 12.4 303 8.9
2004-03-10 07:53:56 51°14.436 2°54.9 310 12.4 303 8.9
2004-03-10 07:54:00 51°14.443 2°54.881 309.9 12.5 302 9.2
2004-03-10 07:54:06 51°14.453 2°54.852 309.9 12.5 301 8.8
2004-03-10 07:54:10 51°14.46 2°54.834 309.1 12.1 299 9
2004-03-10 07:54:15 51°14.467 2°54.811 308.1 11.7 298 9.1
2004-03-10 07:54:20 51°14.474 2°54.789 307.2 11.4 297 8.9
2004-03-10 07:54:24 51°14.479 2°54.771 305.8 11.1 295 9
2004-03-10 07:54:30 51°14.487 2°54.746 304.8 10.6 293 8.9
2004-03-10 07:54:35 51°14.492 2°54.724 303.9 10.5 291 9.1
2004-03-10 07:54:40 51°14.496 2°54.703 303 10.3 290 9.1
2004-03-10 07:54:46 51°14.501 2°54.677 301.4 10.2 288 9.1
2004-03-10 07:54:50 51°14.505 2°54.66 300.4 9.9 287 9.3
2004-03-10 07:54:55 51°14.508 2°54.64 300 9.8 287 9
2004-03-10 07:55:00 51°14.512 2°54.619 300.2 9.8 287 9.2
2004-03-10 07:55:04 51°14.516 2°54.603 301.1 9.6 288 9.1
2004-03-10 07:55:10 51°14.521 2°54.58 302.2 9.4 290 9.2
2004-03-10 07:55:14 51°14.525 2°54.564 303.9 9.4 290 9.1
2004-03-10 07:55:20 51°14.531 2°54.541 305.4 9.6 293 9.1
2004-03-10 07:55:25 51°14.537 2°54.521 307.6 10 296 9.3
2004-03-10 07:55:30 51°14.544 2°54.501 309.9 10.3 298 8.7
2004-03-10 07:55:35 51°14.551 2°54.48 311.9 10.6 299 9.2
2004-03-10 07:55:40 51°14.559 2°54.459 313.7 10.6 299 9.2
2004-03-10 07:55:46 51°14.569 2°54.434 314.6 11 301 8.8
2004-03-10 07:55:50 51°14.576 2°54.417 315 11.5 302 9.5
2004-03-10 07:55:54 51°14.583 2°54.399 315.1 11.7 302 8.8
2004-03-10 07:56:00 51°14.594 2°54.372 314.8 12 302 9.1
2004-03-10 07:56:06 51°14.605 2°54.344 314.6 12.2 302 9.5
2004-03-10 07:56:10 51°14.612 2°54.325 314.3 12.6 302 9.2
2004-03-10 07:56:15 51°14.622 2°54.301 314.2 12.8 303 9.3
2004-03-10 07:56:20 51°14.632 2°54.277 314.4 13 302 8.8
2004-03-10 07:56:26 51°14.643 2°54.247 314 13.2 302 8.8
2004-03-10 07:56:30 51°14.652 2°54.228 314.2 13.3 305 8.6
2004-03-10 07:56:35 51°14.663 2°54.203 315.8 13.3 305 8.6
2004-03-10 07:56:40 51°14.674 2°54.18 316.7 13.4 306 8.6
2004-03-10 07:56:44 51°14.683 2°54.16 318.2 13.6 306 8.4
2004-03-10 07:56:50 51°14.697 2°54.132 318.6 13.4 309 8.5
2004-03-10 07:56:55 51°14.708 2°54.108 319.3 13.7 308 8.2
2004-03-10 07:57:00 51°14.72 2°54.085 319.3 13.4 308 8.5
2004-03-10 07:57:04 51°14.73 2°54.066 320 13.7 308 8.4
2004-03-10 07:57:10 51°14.744 2°54.038 320 13.7 309 8.1
2004-03-10 07:57:15 51°14.756 2°54.014 320.2 13.7 309 8.1
2004-03-10 07:57:20 51°14.768 2°53.991 320.5 13.6 309 8.2
2004-03-10 07:57:26 51°14.781 2°53.962 320.1 13.6 308 8
2004-03-10 07:57:30 51°14.791 2°53.943 319.7 13.6 309 8
2004-03-10 07:57:34 51°14.8 2°53.925 319.5 13.6 309 7.8
2004-03-10 07:57:40 51°14.815 2°53.898 320.3 13.4 311 8.2
2004-03-10 07:57:46 51°14.831 2°53.874 323.5 13.4 314 8
2004-03-10 07:57:50 51°14.842 2°53.858 325.8 13.4 318 7.8
2004-03-10 07:57:55 51°14.857 2°53.839 328.4 13.5 319 8
2004-03-10 07:58:00 51°14.871 2°53.821 331.2 13.4 322 7.9
2004-03-10 07:58:04 51°14.883 2°53.807 333.4 13.3 322 7.8
2004-03-10 07:58:10 51°14.901 2°53.786 334.4 13.3 323 7.8
2004-03-10 07:58:14 51°14.913 2°53.772 335 13.3 323 7.9
2004-03-10 07:58:20 51°14.93 2°53.75 334.7 13.3 323 7.9
2004-03-10 07:58:25 51°14.945 2°53.732 334.1 13.2 321 7.7
2004-03-10 07:58:30 51°14.959 2°53.713 333.5 13.3 321 8
2004-03-10 07:58:36 51°14.976 2°53.69 332.7 13.3 320 8
2004-03-10 07:58:40 51°14.987 2°53.674 331.6 13.5 319 7.9
2004-03-10 07:58:46 51°15.004 2°53.651 330.6 13.5 318 8.1
2004-03-10 07:58:50 51°15.016 2°53.637 331.3 13.4 322 7.9
2004-03-10 07:58:55 51°15.031 2°53.619 333 13.4 324 7.9
2004-03-10 07:59:00 51°15.046 2°53.603 335.7 13.5 325 7.9
2004-03-10 07:59:06 51°15.066 2°53.585 338.4 13.5 325 7.8
2004-03-10 07:59:10 51°15.078 2°53.574 340.8 13.2 331 7.9
2004-03-10 07:59:14 51°15.091 2°53.563 343 13.2 331 8
2004-03-10 07:59:20 51°15.111 2°53.548 345.2 13.1 333 7.8
2004-03-10 07:59:24 51°15.124 2°53.538 346.3 13 335 7.9
2004-03-10 07:59:30 51°15.143 2°53.524 347.6 12.9 336 8
2004-03-10 07:59:35 51°15.16 2°53.513 348.3 13 336 8.1
2004-03-10 07:59:40 51°15.176 2°53.502 348.5 13.1 336 8
2004-03-10 07:59:46 51°15.196 2°53.487 348.7 13.1 336 8
2004-03-10 07:59:50 51°15.209 2°53.477 348.4 13.2 335 8
2004-03-10 07:59:54 51°15.222 2°53.467 347.5 13.1 334 8.2
2004-03-10 08:00:00 51°15.242 2°53.45 345.4 13.3 332 7.9
2004-03-10 08:00:06 51°15.261 2°53.432 343.7 13.3 331 8.2
2004-03-10 08:00:10 51°15.274 2°53.42 342.5 13.3 328 8.4
2004-03-10 08:00:16 51°15.292 2°53.401 340.7 13.4 328 8.3
2004-03-10 08:00:20 51°15.305 2°53.388 340.1 13.4 328 8.4
2004-03-10 08:00:24 51°15.318 2°53.375 339.6 13.4 327 8.4
2004-03-10 08:00:30 51°15.337 2°53.356 339.6 13.4 328 8.5
2004-03-10 08:00:36 51°15.356 2°53.339 340.2 13.4 328 8.4
2004-03-10 08:00:40 51°15.37 2°53.329 342.8 13.4 335 8.6
2004-03-10 08:00:46 51°15.39 2°53.316 346.4 13.4 337 8.7
2004-03-10 08:00:50 51°15.404 2°53.307 349.2 13.4 340 8.7
2004-03-10 08:00:56 51°15.425 2°53.297 352.3 13.3 341 9.1
2004-03-10 08:01:00 51°15.439 2°53.289 353.7 13.2 342 9.2
2004-03-10 08:01:04 51°15.453 2°53.283 354.9 13.3 343 9.2
2004-03-10 08:01:10 51°15.474 2°53.271 355.2 13.4 342 9.1
2004-03-10 08:01:15 51°15.492 2°53.262 355 13.4 341 9.3
2004-03-10 08:01:20 51°15.509 2°53.252 354.2 13.3 340 9.3
2004-03-10 08:01:26 51°15.53 2°53.239 353.3 13.4 339 9.2
2004-03-10 08:01:30 51°15.544 2°53.231 352.7 13.4 339 9.4
2004-03-10 08:01:34 51°15.558 2°53.222 352.1 13.4 339 9.4
2004-03-10 08:01:40 51°15.578 2°53.209 352 13.4 339 9.5
2004-03-10 08:01:44 51°15.592 2°53.201 352.4 13.3 339 9.4
2004-03-10 08:01:50 51°15.613 2°53.189 352.8 13.3 340 9.5
2004-03-10 08:01:56 51°15.634 2°53.177 353.3 13.3 340 9.7
2004-03-10 08:02:00 51°15.648 2°53.169 353.6 13.3 340 9.5
2004-03-10 08:02:05 51°15.665 2°53.158 353.4 13.4 340 9.6
2004-03-10 08:02:10 51°15.683 2°53.148 353.4 13.4 340 9.5
2004-03-10 08:02:14 51°15.697 2°53.14 353.4 13.4 340 9.7
2004-03-10 08:02:20 51°15.717 2°53.128 353.3 13.4 340 9.7
2004-03-10 08:02:26 51°15.738 2°53.115 353.4 13.3 340 9.8
2004-03-10 08:02:30 51°15.752 2°53.107 353.1 13.4 340 9.7
2004-03-10 08:02:36 51°15.773 2°53.095 353 13.3 339 10
2004-03-10 08:02:40 51°15.787 2°53.087 352.9 13.2 340 9.7
2004-03-10 08:02:46 51°15.808 2°53.074 353.4 13.3 340 10
2004-03-10 08:02:50 51°15.822 2°53.067 353.4 13.3 341 9.9
2004-03-10 08:02:56 51°15.843 2°53.055 353.5 13.3 341 10
2004-03-10 08:03:00 51°15.857 2°53.047 353.9 13.3 340 9.9
2004-03-10 08:03:06 51°15.878 2°53.035 353.5 13.3 340 10.1
2004-03-10 08:03:10 51°15.892 2°53.026 353.2 13.4 340 10.2
2004-03-10 08:03:16 51°15.912 2°53.014 353 13.3 340 10.1
2004-03-10 08:03:20 51°15.926 2°53.006 352.7 13.3 339 10.2
2004-03-10 08:03:24 51°15.94 2°52.998 352.8 13.4 339 10.3
2004-03-10 08:03:30 51°15.961 2°52.985 352.6 13.4 339 10.2
2004-03-10 08:03:35 51°15.979 2°52.974 352.5 13.4 339 10.2
2004-03-10 08:03:40 51°15.996 2°52.964 352.2 13.4 339 10.1
2004-03-10 08:03:46 51°16.017 2°52.951 352.4 13.4 340 10.3
2004-03-10 08:03:50 51°16.031 2°52.943 352.7 13.3 340 10.3
2004-03-10 08:03:54 51°16.044 2°52.935 352.7 13.3 340 10.4
2004-03-10 08:04:00 51°16.065 2°52.922 352.8 13.4 339 10.3
2004-03-10 08:04:04 51°16.079 2°52.914 352.7 13.4 340 10.4
2004-03-10 08:04:10 51°16.1 2°52.902 352.7 13.4 340 10.5
2004-03-10 08:04:16 51°16.121 2°52.889 352.6 13.4 339 10.3
2004-03-10 08:04:20 51°16.135 2°52.881 352.5 13.4 339 10.4
2004-03-10 08:04:26 51°16.155 2°52.869 352.4 13.4 340 10.7
2004-03-10 08:04:30 51°16.169 2°52.86 352.7 13.4 339 10.3
2004-03-10 08:04:36 51°16.19 2°52.848 352.7 13.3 339 10.7
2004-03-10 08:04:40 51°16.204 2°52.839 352.5 13.4 339 10.4
2004-03-10 08:04:44 51°16.218 2°52.831 352.5 13.4 340 10.5
2004-03-10 08:04:50 51°16.239 2°52.818 352.5 13.4 339 10.4
2004-03-10 08:04:56 51°16.259 2°52.806 352.3 13.3 339 10.6
2004-03-10 08:05:00 51°16.273 2°52.797 352.3 13.3 339 10.7
2004-03-10 08:05:06 51°16.294 2°52.785 352.5 13.3 340 10.7
2004-03-10 08:05:10 51°16.308 2°52.777 352.7 13.3 341 10.7
2004-03-10 08:05:16 51°16.329 2°52.766 354 13.3 341 10.5
2004-03-10 08:05:20 51°16.343 2°52.76 355.1 13.2 343 10.7
2004-03-10 08:05:26 51°16.364 2°52.749 356.1 13.2 343 10.3
2004-03-10 08:05:30 51°16.378 2°52.743 356.6 13.2 344 10.6
2004-03-10 08:05:36 51°16.399 2°52.733 357 13.2 344 10.4
2004-03-10 08:05:40 51°16.413 2°52.727 357 13.2 343 10.4
2004-03-10 08:05:46 51°16.434 2°52.716 357 13.2 343 10.4
2004-03-10 08:05:50 51°16.449 2°52.71 356.9 13.2 344 10.4
2004-03-10 08:05:54 51°16.463 2°52.703 356.8 13.3 344 10.4
2004-03-10 08:06:00 51°16.483 2°52.693 356.9 13.2 344 10.2
2004-03-10 08:06:06 51°16.505 2°52.683 357 13.2 344 10.1
2004-03-10 08:06:10 51°16.519 2°52.677 357 13.3 344 10.1
2004-03-10 08:06:14 51°16.533 2°52.671 357.3 13.1 344 10
2004-03-10 08:06:20 51°16.554 2°52.662 357.6 13.1 344 9.8
2004-03-10 08:06:26 51°16.575 2°52.652 357.5 13.2 345 9.8
2004-03-10 08:06:30 51°16.589 2°52.646 357.4 13.2 345 9.7
2004-03-10 08:06:36 51°16.61 2°52.637 357.4 13.1 344 9.6
2004-03-10 08:06:40 51°16.624 2°52.631 357.1 13.1 344 9.7
2004-03-10 08:06:46 51°16.645 2°52.621 357.1 13.1 344 9.5
2004-03-10 08:06:50 51°16.659 2°52.615 357 13.1 345 9.3
2004-03-10 08:06:54 51°16.673 2°52.609 356.9 13.1 345 8.8
2004-03-10 08:07:00 51°16.694 2°52.6 356.7 13 344 8.9
2004-03-10 08:07:04 51°16.708 2°52.594 356.7 13 345 8.6
2004-03-10 08:07:10 51°16.729 2°52.586 357.1 12.9 347 8.3
2004-03-10 08:07:16 51°16.749 2°52.578 357.8 12.9 347 8
2004-03-10 08:07:20 51°16.763 2°52.573 357.9 12.8 347 7.9
2004-03-10 08:07:24 51°16.777 2°52.568 357.7 12.6 347 8.2
2004-03-10 08:07:30 51°16.797 2°52.56 357 12.8 346 8.2
2004-03-10 08:07:34 51°16.811 2°52.554 356.5 12.8 346 8.2
2004-03-10 08:07:40 51°16.832 2°52.545 356.4 13 345 7.8
2004-03-10 08:07:46 51°16.853 2°52.536 355.8 13 345 7.9
2004-03-10 08:07:50 51°16.866 2°52.529 355.4 12.8 344 8.1
2004-03-10 08:07:56 51°16.887 2°52.52 354.9 12.9 344 8.1
2004-03-10 08:08:00 51°16.901 2°52.513 354.8 13 343 8.2
2004-03-10 08:08:06 51°16.922 2°52.504 354.5 12.9 345 8.1
2004-03-10 08:08:10 51°16.936 2°52.498 354.9 13 346 8
2004-03-10 08:08:14 51°16.95 2°52.495 357.3 13 346 7.8
2004-03-10 08:08:20 51°16.971 2°52.49 0.5 12.7 351 7.7
2004-03-10 08:08:26 51°16.991 2°52.488 3.4 12.6 355 7.7
2004-03-10 08:08:30 51°17.005 2°52.487 6.1 12.5 357 7.6
2004-03-10 08:08:36 51°17.026 2°52.486 8.1 12.4 358 7.7
2004-03-10 08:08:40 51°17.04 2°52.486 9.4 12.4   8
2004-03-10 08:08:46 51°17.06 2°52.486 10.5 12.5 359 7.9
2004-03-10 08:08:50 51°17.074 2°52.485 10.6 12.5 358 7.7
2004-03-10 08:08:56 51°17.095 2°52.483 9.8 12.6 357 8.1
2004-03-10 08:09:00 51°17.109 2°52.481 8.4 12.7 356 7.9
2004-03-10 08:09:04 51°17.123 2°52.479 6.8 12.7 355 8.1
2004-03-10 08:09:10 51°17.144 2°52.475 5.8 12.8 353 8.2
2004-03-10 08:09:15 51°17.162 2°52.471 4.8 12.8 353 8.2
2004-03-10 08:09:20 51°17.179 2°52.468 4.1 12.8 352 8.1
2004-03-10 08:09:24 51°17.193 2°52.465 3.9 12.8 353 8.2
2004-03-10 08:09:30 51°17.215 2°52.461 4.2 12.7 354 8.1
2004-03-10 08:09:35 51°17.232 2°52.459 4.9 12.7 355 8.1
2004-03-10 08:09:40 51°17.25 2°52.457 5.8 12.7 355 8.1
2004-03-10 08:09:44 51°17.264 2°52.455 6.9 12.8 356 8.2
2004-03-10 08:09:50 51°17.285 2°52.453 7.3 12.7 356 8.3
2004-03-10 08:09:55 51°17.303 2°52.452 7.8 12.7 357 8.1
2004-03-10 08:10:00 51°17.321 2°52.45 8.1 12.9 356 8.3
2004-03-10 08:10:05 51°17.339 2°52.449 8 12.8 357 8.4
2004-03-10 08:10:10 51°17.357 2°52.447 7.8 12.8 356 8.5
2004-03-10 08:10:16 51°17.378 2°52.443 7.2 12.8 356 8.1
2004-03-10 08:10:20 51°17.392 2°52.441 6.1 12.8 356 8.1
2004-03-10 08:10:26 51°17.413 2°52.438 5.7 12.8 354 8.5
2004-03-10 08:10:30 51°17.427 2°52.436 5.5 12.7 355 8.4
2004-03-10 08:10:35 51°17.445 2°52.433 5.6 12.7 355 8.4
2004-03-10 08:10:40 51°17.463 2°52.431 6.4 12.9 355 8.6
2004-03-10 08:10:44 51°17.477 2°52.429 6.9 12.8 356 8.5
2004-03-10 08:10:50 51°17.498 2°52.427 7.4 12.8 357 8.6
2004-03-10 08:10:56 51°17.519 2°52.425 7.9 12.9 357 8.5
2004-03-10 08:11:00 51°17.533 2°52.424 8 12.8 356 8.6
2004-03-10 08:11:06 51°17.555 2°52.422 8.1 12.8 356 8.5
2004-03-10 08:11:10 51°17.569 2°52.42 8.1 12.8 356 8.5
2004-03-10 08:11:16 51°17.59 2°52.418 7.5 12.8 356 8.5
2004-03-10 08:11:20 51°17.604 2°52.416 7.1 12.9 355 8.5
2004-03-10 08:11:26 51°17.626 2°52.412 6.7 12.9 355 8.5
2004-03-10 08:11:30 51°17.64 2°52.41 6.1 12.9 355 8.6
2004-03-10 08:11:36 51°17.661 2°52.407 6.1 12.8 355 8.6
2004-03-10 08:11:40 51°17.676 2°52.405 6.5 12.9 355 8.5
2004-03-10 08:11:46 51°17.697 2°52.402 6.5 12.9 355 8.5
2004-03-10 08:11:50 51°17.711 2°52.401 7.1 12.8 356 8.4
2004-03-10 08:11:56 51°17.732 2°52.398 7.5 12.9 356 8.4
2004-03-10 08:12:00 51°17.747 2°52.397 7.9 12.8 356 8.7
2004-03-10 08:12:06 51°17.768 2°52.394 7.5 12.9 356 8.6
2004-03-10 08:12:10 51°17.782 2°52.392 7.3 12.8 356 8.6
2004-03-10 08:12:16 51°17.803 2°52.389 7.1 12.9 355 8.5
2004-03-10 08:12:20 51°17.817 2°52.387 6.6 12.8 355 8.5
2004-03-10 08:12:24 51°17.832 2°52.384 6.5 12.8 353 8.5
2004-03-10 08:12:30 51°17.853 2°52.381 5.3 12.9 355 8.7
2004-03-10 08:12:35 51°17.871 2°52.378 5.6 12.9 354 8.6
2004-03-10 08:12:40 51°17.888 2°52.375 5.8 12.9 355 8.4
2004-03-10 08:12:46 51°17.91 2°52.372 6.2 12.9 355 8.6
2004-03-10 08:12:50 51°17.924 2°52.371 7 12.9 355 8.6
2004-03-10 08:12:56 51°17.946 2°52.371 8.4 12.8 359 8.7
2004-03-10 08:13:00 51°17.96 2°52.371 10.8 12.8 1 8.7
2004-03-10 08:13:06 51°17.981 2°52.373 12.4 12.7 2 8.6
2004-03-10 08:13:10 51°17.995 2°52.375 13.9 12.5 5 8.9
2004-03-10 08:13:14 51°18.009 2°52.377 15.7 12.7 5 8.6
2004-03-10 08:13:20 51°18.03 2°52.38 16 12.7 5 8.7
2004-03-10 08:13:26 51°18.051 2°52.383 16.4 12.7 5 8.9
2004-03-10 08:13:30 51°18.065 2°52.385 16.4 12.6 5 8.8
2004-03-10 08:13:36 51°18.086 2°52.387 16.4 12.6 5 9
2004-03-10 08:13:40 51°18.1 2°52.389 16.2 12.8 5 8.8
2004-03-10 08:13:46 51°18.122 2°52.391 15.8 12.8 3 8.8
2004-03-10 08:13:50 51°18.136 2°52.392 15 12.7 3 8.9
2004-03-10 08:13:54 51°18.15 2°52.393 15 12.6 3 9.1
2004-03-10 08:14:00 51°18.171 2°52.395 14.8 12.8 3 8.9
2004-03-10 08:14:06 51°18.192 2°52.397 14.6 12.8 3 8.9
2004-03-10 08:14:10 51°18.206 2°52.398 14.4 12.7 4 9.1
2004-03-10 08:14:16 51°18.227 2°52.403 15.6 12.5 6 9.2
2004-03-10 08:14:20 51°18.241 2°52.406 17.7 12.7 8 9.2
2004-03-10 08:14:26 51°18.261 2°52.413 20 12.5 11 9.1
2004-03-10 08:14:30 51°18.275 2°52.418 22.8 12.7 12 9.2
2004-03-10 08:14:36 51°18.295 2°52.426 23.3 12.7 12 9.2
2004-03-10 08:14:40 51°18.309 2°52.431 24.3 12.5 14 9.2
2004-03-10 08:14:45 51°18.325 2°52.438 25.2 12.4 14 9.2
2004-03-10 08:14:50 51°18.342 2°52.445 25.2 12.5 14 9.3
2004-03-10 08:14:55 51°18.359 2°52.451 25.1 12.6 14 9.4
2004-03-10 08:15:00 51°18.376 2°52.457 24.7 12.5 14 9.3
2004-03-10 08:15:06 51°18.396 2°52.465 24.3 12.5 14 9.4
2004-03-10 08:15:10 51°18.41 2°52.47 24.1 12.5 13 9.5
2004-03-10 08:15:16 51°18.43 2°52.478 23.9 12.5 13 9.4
2004-03-10 08:15:20 51°18.444 2°52.483 23.9 12.6 13 9.4
2004-03-10 08:15:26 51°18.464 2°52.491 24.2 12.6 13 9.5
2004-03-10 08:15:30 51°18.478 2°52.496 24.5 12.5 13 9.7
2004-03-10 08:15:36 51°18.498 2°52.503 24.5 12.5 13 9.5
2004-03-10 08:15:40 51°18.512 2°52.508 24 12.5 12 9.6
2004-03-10 08:15:46 51°18.532 2°52.515 23.9 12.6 13 9.6
2004-03-10 08:15:50 51°18.545 2°52.52 23.5 12.6 12 9.7
2004-03-10 08:15:55 51°18.562 2°52.528 24.7 12.4 16 9.7
2004-03-10 08:16:00 51°18.578 2°52.536 26.5 12.4 17 9.9
2004-03-10 08:16:04 51°18.591 2°52.544 28.5 12.3 19 9.6
2004-03-10 08:16:10 51°18.61 2°52.555 29.7 12.4 20 9.8
2004-03-10 08:16:14 51°18.623 2°52.563 30.8 12.4 21 9.9
2004-03-10 08:16:20 51°18.642 2°52.574 31.2 12.4 20 9.7
2004-03-10 08:16:25 51°18.658 2°52.584 31.1 12.2 21 9.9
2004-03-10 08:16:30 51°18.674 2°52.593 31.4 12.3 21 10
2004-03-10 08:16:36 51°18.693 2°52.605 31.5 12.3 21 9.9
2004-03-10 08:16:40 51°18.706 2°52.613 31.8 12.3 22 10
2004-03-10 08:16:46 51°18.725 2°52.624 32 12.3 21 10
2004-03-10 08:16:50 51°18.738 2°52.632 31.7 12.3 20 10.1
2004-03-10 08:16:56 51°18.757 2°52.643 31.2 12.3 20 10
2004-03-10 08:17:00 51°18.77 2°52.651 31 12.3 20 10.2
2004-03-10 08:17:06 51°18.789 2°52.662 30.6 12.4 20 10.1
2004-03-10 08:17:10 51°18.802 2°52.669 30.7 12.3 20 10.1
2004-03-10 08:17:15 51°18.818 2°52.679 30.8 12.2 20 10
2004-03-10 08:17:20 51°18.834 2°52.689 31 12.2 21 10.2
2004-03-10 08:17:24 51°18.846 2°52.698 32.2 12.3 23 10.4
2004-03-10 08:17:30 51°18.864 2°52.711 33.7 12.2 25 10.2
2004-03-10 08:17:36 51°18.883 2°52.725 34.6 12.3 25 10.4
2004-03-10 08:17:40 51°18.895 2°52.734 35.2 12.3 25 10.2
2004-03-10 08:17:44 51°18.907 2°52.743 35.5 12.1 26 10.4
2004-03-10 08:17:50 51°18.926 2°52.757 35.5 12.2 25 10.1
2004-03-10 08:17:56 51°18.944 2°52.77 35.2 12.2 25 10.6
2004-03-10 08:18:00 51°18.956 2°52.779 34.9 12.1 25 10.3
2004-03-10 08:18:06 51°18.975 2°52.792 34.9 12.1 24 10.4
2004-03-10 08:18:10 51°18.987 2°52.802 34.9 12.2 25 10.5
2004-03-10 08:18:16 51°19.005 2°52.815 35.3 12.2 25 10.8
2004-03-10 08:18:20 51°19.018 2°52.824 34.8 12.3 24 10.7
2004-03-10 08:18:24 51°19.03 2°52.832 34.6 12.2 25 10.6
2004-03-10 08:18:30 51°19.049 2°52.846 34.8 12.2 25 10.9
2004-03-10 08:18:35 51°19.064 2°52.857 34.9 12.3 25 10.8
2004-03-10 08:18:40 51°19.079 2°52.869 35.1 12.3 24 10.7
2004-03-10 08:18:46 51°19.098 2°52.882 35 12.3 24 10.9
2004-03-10 08:18:50 51°19.11 2°52.891 34.5 12.3 24 10.9
2004-03-10 08:18:55 51°19.126 2°52.902 34.4 12.2 24 10.8
2004-03-10 08:19:00 51°19.141 2°52.913 34.9 12.3 24 11
2004-03-10 08:19:05 51°19.157 2°52.924 34.8 12.3 24 11.2
2004-03-10 08:19:10 51°19.173 2°52.935 34.8 12.2 25 11
2004-03-10 08:19:16 51°19.191 2°52.949 34.9 12.2 25 11.2
2004-03-10 08:19:20 51°19.203 2°52.958 34.9 12.2 24 11.2
2004-03-10 08:19:26 51°19.222 2°52.971 34.7 12.2 23 11.2
2004-03-10 08:19:30 51°19.234 2°52.98 34.3 12.2 24 11.2
2004-03-10 08:19:36 51°19.253 2°52.993 34.5 12.2 24 11.3
2004-03-10 08:19:40 51°19.265 2°53.002 34.5 12.2 24 11.5
2004-03-10 08:19:46 51°19.284 2°53.015 34.7 12.2 24 11.3
2004-03-10 08:19:50 51°19.296 2°53.024 34.7 12.2 24 11.5
2004-03-10 08:19:56 51°19.315 2°53.037 34.7 12.2 23 11.4
2004-03-10 08:20:00 51°19.327 2°53.045 34.3 12.2 24 11.6
2004-03-10 08:20:05 51°19.343 2°53.056 34.3 12.2 24 11.6
2004-03-10 08:20:10 51°19.359 2°53.067 34.6 12.3 24 11.7
2004-03-10 08:20:15 51°19.374 2°53.079 34.8 12.3 25 11.8
2004-03-10 08:20:20 51°19.39 2°53.09 34.5 12.2 24 11.7
2004-03-10 08:20:26 51°19.408 2°53.103 34.4 12.2 24 11.5
2004-03-10 08:20:30 51°19.42 2°53.112 34.7 12.2 24 11.7
2004-03-10 08:20:36 51°19.439 2°53.125 34.5 12.2 24 11.8
2004-03-10 08:20:40 51°19.451 2°53.134 34.7 12.2 24 11.8
2004-03-10 08:20:46 51°19.47 2°53.147 34.5 12.1 24 11.9
2004-03-10 08:20:50 51°19.482 2°53.156 34.7 12.2 24 11.8
2004-03-10 08:20:55 51°19.498 2°53.167 34.7 12.2 24 12.3
2004-03-10 08:21:00 51°19.513 2°53.177 34.1 12.2 24 12
2004-03-10 08:21:06 51°19.531 2°53.19 34.1 12.1 23 12
2004-03-10 08:21:10 51°19.544 2°53.199 34.1 12.1 24 12.1
2004-03-10 08:21:16 51°19.563 2°53.212 34.4 12.1 24 12.2
2004-03-10 08:21:20 51°19.575 2°53.221 34.4 12 25 12.4
2004-03-10 08:21:26 51°19.593 2°53.234 34.4 12.1 24 12.2
2004-03-10 08:21:30 51°19.605 2°53.242 34.4 12 24 12.7
2004-03-10 08:21:36 51°19.623 2°53.255 34.1 12 24 12.3
2004-03-10 08:21:40 51°19.635 2°53.264 34.5 12.1 24 12.4
2004-03-10 08:21:46 51°19.654 2°53.277 34.7 12 24 12.6
2004-03-10 08:21:50 51°19.666 2°53.286 34.8 12.1 24 12.6
2004-03-10 08:21:55 51°19.681 2°53.296 34.6 12.1 24 12.8
2004-03-10 08:22:00 51°19.696 2°53.307 34.1 12.1 24 12.6
2004-03-10 08:22:06 51°19.715 2°53.32 34.1 11.9 24 12.9
2004-03-10 08:22:10 51°19.727 2°53.329 34.3 12.1 24 12.9
2004-03-10 08:22:16 51°19.745 2°53.342 34.5 12 24 12.8
2004-03-10 08:22:20 51°19.758 2°53.351 34.3 12 24 12.8
2004-03-10 08:22:26 51°19.776 2°53.364 34.7 12.1 24 12.8
2004-03-10 08:22:30 51°19.788 2°53.373 34.8 12.2 24 13
2004-03-10 08:22:36 51°19.806 2°53.386 34.1 12.2 24 13
2004-03-10 08:22:40 51°19.819 2°53.395 33.9 12 24 12.9
2004-03-10 08:22:46 51°19.837 2°53.408 34.4 12.1 25 13.2
2004-03-10 08:22:50 51°19.849 2°53.417 34.6 12.1 24 13.1
2004-03-10 08:22:55 51°19.865 2°53.427 34.2 12.1 23 13.1
2004-03-10 08:23:00 51°19.88 2°53.439 34.2 12.1 24 13.1
2004-03-10 08:23:05 51°19.896 2°53.449 34.5 12.1 24 13.3
2004-03-10 08:23:10 51°19.91 2°53.461 34.2 12 25 13.2
2004-03-10 08:23:16 51°19.929 2°53.474 34.8 12 25 13.3
2004-03-10 08:23:20 51°19.941 2°53.483 34.6 12 24 13.3
2004-03-10 08:23:26 51°19.959 2°53.496 34.2 12.1 24 13.3
2004-03-10 08:23:30 51°19.971 2°53.505 34.4 12.1 24 13.3
2004-03-10 08:23:35 51°19.987 2°53.516 34.4 12.1 24 13.5
2004-03-10 08:23:40 51°20.002 2°53.527 34.4 12.1 24 13.6
2004-03-10 08:23:46 51°20.02 2°53.54 34.5 12.1 25 13.5
2004-03-10 08:23:50 51°20.033 2°53.549 34.5 12.1 25 13.8
2004-03-10 08:23:56 51°20.051 2°53.563 34.2 12.2 24 13.8
2004-03-10 08:24:00 51°20.063 2°53.571 34.2 12.1 25 13.7
2004-03-10 08:24:06 51°20.082 2°53.585 34.5 12.2 24 13.9
2004-03-10 08:24:10 51°20.094 2°53.593 34.1 12.1 24 13.9
2004-03-10 08:24:16 51°20.113 2°53.607 34.1 12.1 24 13.8
2004-03-10 08:24:20 51°20.125 2°53.616 34.3 12 25 13.9
2004-03-10 08:24:26 51°20.143 2°53.629 34.6 12.1 25 14
2004-03-10 08:24:30 51°20.155 2°53.638 34.8 12.1 25 14
2004-03-10 08:24:36 51°20.174 2°53.651 34.7 12.1 25 13.9
2004-03-10 08:24:40 51°20.186 2°53.66 34.4 12.1 24 14.1
2004-03-10 08:24:46 51°20.205 2°53.673 34.1 12.1 24 14.2
2004-03-10 08:24:50 51°20.217 2°53.681 34.1 12.1 24 14.2
2004-03-10 08:24:55 51°20.232 2°53.693 34 12 25 14
2004-03-10 08:25:00 51°20.247 2°53.704 34.8 12.1 26 14.1
2004-03-10 08:25:04 51°20.259 2°53.714 35.6 12.1 27 14.3
2004-03-10 08:25:10 51°20.277 2°53.728 36.1 12.1 27 14.3
2004-03-10 08:25:16 51°20.295 2°53.743 36.3 12.1 28 14.1
2004-03-10 08:25:20 51°20.307 2°53.752 37 12.1 27 14
2004-03-10 08:25:26 51°20.325 2°53.767 36.7 12.1 27 14.3
2004-03-10 08:25:30 51°20.337 2°53.777 36.3 12 27 14.4
2004-03-10 08:25:35 51°20.352 2°53.789 36.3 12.1 27 14.3
2004-03-10 08:25:40 51°20.367 2°53.801 36.4 12.1 27 14.3
2004-03-10 08:25:45 51°20.381 2°53.813 36.6 12.1 27 14.3
2004-03-10 08:25:50 51°20.396 2°53.825 36.3 12.1 27 14.3
2004-03-10 08:25:56 51°20.415 2°53.839 36.2 12.1 26 14.2
2004-03-10 08:26:00 51°20.427 2°53.849 35.8 12.1 27 14.4
2004-03-10 08:26:06 51°20.445 2°53.863 36 12.1 27 14.4
2004-03-10 08:26:10 51°20.457 2°53.873 36.5 12.2 27 14.4
2004-03-10 08:26:16 51°20.475 2°53.888 36.3 12.2 27 14.5
2004-03-10 08:26:20 51°20.487 2°53.898 36.5 12.3 27 14.4
2004-03-10 08:26:26 51°20.505 2°53.913 36.4 12.2 27 14.4
2004-03-10 08:26:30 51°20.517 2°53.923 36.3 12.2 27 14.5
2004-03-10 08:26:35 51°20.532 2°53.935 36.6 12.2 28 14.6
2004-03-10 08:26:40 51°20.547 2°53.948 36.7 12.2 27 14.3
2004-03-10 08:26:46 51°20.565 2°53.963 36.8 12.2 27 14.5
2004-03-10 08:26:50 51°20.577 2°53.972 36.4 12.2 26 14.6
2004-03-10 08:26:56 51°20.595 2°53.987 36 12.2 26 14.5
2004-03-10 08:27:00 51°20.607 2°53.996 36 12.1 27 14.6
2004-03-10 08:27:06 51°20.625 2°54.011 35.9 12.2 27 14.6
2004-03-10 08:27:10 51°20.637 2°54.021 36.2 12.2 27 14.6
2004-03-10 08:27:16 51°20.656 2°54.036 36.7 12.2 27 14.5
2004-03-10 08:27:20 51°20.668 2°54.046 36.5 12.2 27 14.5
2004-03-10 08:27:24 51°20.68 2°54.055 36.4 12.3 27 14.5
2004-03-10 08:27:30 51°20.698 2°54.071 36.2 12.3 28 14.7
2004-03-10 08:27:36 51°20.716 2°54.086 36.6 12.3 27 14.8
2004-03-10 08:27:40 51°20.728 2°54.095 36.4 12.2 27 14.7
2004-03-10 08:27:46 51°20.746 2°54.11 36.7 12.1 28 14.7
2004-03-10 08:27:50 51°20.758 2°54.12 36.2 12.1 27 14.6
2004-03-10 08:27:56 51°20.776 2°54.134 36.2 12.2 27 14.7
2004-03-10 08:28:00 51°20.788 2°54.144 36.2 12.2 27 14.7
2004-03-10 08:28:05 51°20.803 2°54.157 36.1 12.1 27 14.8
2004-03-10 08:28:10 51°20.818 2°54.169 36.4 12.1 27 14.6
2004-03-10 08:28:16 51°20.836 2°54.184 36.5 12.1 27 14.7
2004-03-10 08:28:20 51°20.848 2°54.194 36.5 12.1 27 15.1
2004-03-10 08:28:26 51°20.865 2°54.208 36.2 12.1 27 14.7
2004-03-10 08:28:30 51°20.877 2°54.218 36.5 12.1 28 14.9
2004-03-10 08:28:36 51°20.895 2°54.232 36.8 12.1 28 14.8
2004-03-10 08:28:40 51°20.907 2°54.242 36.6 12 27 15
2004-03-10 08:28:45 51°20.922 2°54.253 36 12.1 26 14.8
2004-03-10 08:28:50 51°20.937 2°54.266 35.9 12.2 27 14.9
2004-03-10 08:28:56 51°20.955 2°54.28 36.2 12.2 27 15
2004-03-10 08:29:00 51°20.966 2°54.29 36.2 12.1 28 14.7
2004-03-10 08:29:06 51°20.984 2°54.305 36.5 12.1 28 14.9
2004-03-10 08:29:10 51°20.996 2°54.315 36.9 12.2 27 14.8
2004-03-10 08:29:14 51°21.008 2°54.325 36.6 12.1 27 15
2004-03-10 08:29:20 51°21.026 2°54.339 36.2 12.1 26 14.8
2004-03-10 08:29:26 51°21.044 2°54.353 35.8 12.1 27 15
2004-03-10 08:29:30 51°21.056 2°54.363 35.9 12.1 27 14.9
2004-03-10 08:29:36 51°21.075 2°54.377 35.8 12.1 26 14.9
2004-03-10 08:29:40 51°21.087 2°54.387 35.6 12.2 26 15.1
2004-03-10 08:29:46 51°21.105 2°54.401 35.5 12.1 26 14.9
2004-03-10 08:29:50 51°21.117 2°54.411 35.6 12.2 26 15.1
2004-03-10 08:29:55 51°21.132 2°54.423 35.7 12.1 27 14.9
2004-03-10 08:30:00 51°21.147 2°54.435 36.3 12.2 27 14.9
2004-03-10 08:30:06 51°21.165 2°54.45 36.7 12 27 14.8
2004-03-10 08:30:10 51°21.177 2°54.459 36.3 12.2 27 15.1
2004-03-10 08:30:15 51°21.192 2°54.472 36.3 12.2 28 15.2
2004-03-10 08:30:20 51°21.207 2°54.484 36.4 12.1 27 15.2
2004-03-10 08:30:26 51°21.225 2°54.498 36.3 12.1 28 15.1
2004-03-10 08:30:30 51°21.237 2°54.508 36.2 12.1 27 15.2
2004-03-10 08:30:36 51°21.254 2°54.523 36.3 12.1 27 15
2004-03-10 08:30:40 51°21.266 2°54.533 36.4 12.1 28 15.1
2004-03-10 08:30:45 51°21.281 2°54.545 36.7 12.1 27 15.3
2004-03-10 08:30:50 51°21.296 2°54.557 36.2 12.2 27 15.4
2004-03-10 08:30:55 51°21.311 2°54.569 35.9 12.2 27 15.3
2004-03-10 08:31:00 51°21.327 2°54.581 35.8 12.2 26 15.4
2004-03-10 08:31:06 51°21.345 2°54.596 35.6 12.2 26 15.3
2004-03-10 08:31:10 51°21.357 2°54.606 36.1 12.2 27 15.3
2004-03-10 08:31:14 51°21.369 2°54.615 36.2 12.3 27 15.2
2004-03-10 08:31:20 51°21.387 2°54.63 36.3 12.2 27 15.4
2004-03-10 08:31:24 51°21.399 2°54.641 36.4 12.2 28 15.3
2004-03-10 08:31:30 51°21.418 2°54.656 36.6 12.3 27 15.6
2004-03-10 08:31:36 51°21.435 2°54.67 36.5 12.2 27 15.4
2004-03-10 08:31:40 51°21.447 2°54.68 36.6 12.1 27 15.5
2004-03-10 08:31:46 51°21.465 2°54.695 36.6 12.2 28 15.3
2004-03-10 08:31:50 51°21.477 2°54.705 36.8 12 28 15.4
2004-03-10 08:31:55 51°21.492 2°54.718 36.8 12.1 28 15.4
2004-03-10 08:32:00 51°21.507 2°54.73 36.8 12.1 27 15.3
2004-03-10 08:32:06 51°21.525 2°54.744 36.4 12.1 27 15.5
2004-03-10 08:32:10 51°21.537 2°54.754 36 12.1 27 15.3
2004-03-10 08:32:14 51°21.549 2°54.764 36.1 12.2 27 15.4
2004-03-10 08:32:20 51°21.567 2°54.779 36.1 12.2 27 15.6
2004-03-10 08:32:26 51°21.585 2°54.794 36.6 12.2 28 15.5
2004-03-10 08:32:30 51°21.597 2°54.803 36.7 12.2 27 15.4
2004-03-10 08:32:36 51°21.615 2°54.818 36.6 12.1 28 15.5
2004-03-10 08:32:40 51°21.627 2°54.828 36 12.2 26 15.2
2004-03-10 08:32:46 51°21.645 2°54.842 35.7 12.1 27 15.5
2004-03-10 08:32:50 51°21.657 2°54.852 35.9 12.1 28 15.3
2004-03-10 08:32:55 51°21.672 2°54.865 36.4 12.1 28 15.8
2004-03-10 08:33:00 51°21.687 2°54.877 36.5 12.1 27 15.6
2004-03-10 08:33:06 51°21.705 2°54.891 36.2 12.2 28 15.6
2004-03-10 08:33:10 51°21.717 2°54.902 36.4 12.1 27 15.5
2004-03-10 08:33:16 51°21.735 2°54.916 36.3 12.2 27 15.5
2004-03-10 08:33:20 51°21.747 2°54.926 36.3 12.3 28 15.8
2004-03-10 08:33:26 51°21.765 2°54.941 36.2 12.2 27 15.7
2004-03-10 08:33:30 51°21.777 2°54.951 36.2 12.1 27 15.7
2004-03-10 08:33:36 51°21.795 2°54.966 36.3 12.2 27 15.5
2004-03-10 08:33:40 51°21.807 2°54.976 36.3 12.2 28 15.5
2004-03-10 08:33:46 51°21.825 2°54.991 36.8 12.1 28 15.8
2004-03-10 08:33:50 51°21.837 2°55.001 36.6 12.2 28 15.8
2004-03-10 08:33:56 51°21.855 2°55.016 36.5 12.1 27 15.6
2004-03-10 08:34:00 51°21.867 2°55.026 36 12.2 27 15.9
2004-03-10 08:34:05 51°21.882 2°55.038 35.6 12.2 27 15.8
2004-03-10 08:34:10 51°21.898 2°55.049 34.6 12.3 24 16
2004-03-10 08:34:16 51°21.916 2°55.062 33.8 12.3 25 15.9
2004-03-10 08:34:20 51°21.928 2°55.071 33.3 12.1 24 15.8
2004-03-10 08:34:26 51°21.947 2°55.084 33.1 12.2 25 15.5
2004-03-10 08:34:30 51°21.959 2°55.093 33 12.2 24 15.7
2004-03-10 08:34:34 51°21.971 2°55.102 33.2 12.2 24 15.6
2004-03-10 08:34:40 51°21.99 2°55.115 33 12.2 24 15.7
2004-03-10 08:34:46 51°22.009 2°55.128 33 12.4 24 15.8
2004-03-10 08:34:50 51°22.021 2°55.137 32.9 12.3 24 15.9
2004-03-10 08:34:56 51°22.041 2°55.151 32.7 12.4 24 16
2004-03-10 08:35:00 51°22.053 2°55.16 33.1 12.4 24 16.1
2004-03-10 08:35:06 51°22.072 2°55.173 33.1 12.4 24 16.1
2004-03-10 08:35:10 51°22.084 2°55.182 33.2 12.3 25 16.6
2004-03-10 08:35:16 51°22.103 2°55.196 33.3 12.3 25 16.7
2004-03-10 08:35:20 51°22.115 2°55.205 33.5 12.3 24 16.7
2004-03-10 08:35:26 51°22.134 2°55.218 33.1 12.3 24 16.8
2004-03-10 08:35:30 51°22.146 2°55.227 33.1 12.4 24 16.7
2004-03-10 08:35:36 51°22.165 2°55.24 33.1 12.4 24 16.8
2004-03-10 08:35:40 51°22.178 2°55.249 33.3 12.4 25 16.6
2004-03-10 08:35:45 51°22.193 2°55.261 33 12.4 24 16.8
2004-03-10 08:35:50 51°22.209 2°55.272 33.1 12.3 24 16.6
2004-03-10 08:35:55 51°22.225 2°55.283 33 12.3 24 16.9
2004-03-10 08:36:00 51°22.24 2°55.294 33.3 12.5 25 17
2004-03-10 08:36:04 51°22.253 2°55.304 33.3 12.4 24 17.2
2004-03-10 08:36:10 51°22.272 2°55.317 33.3 12.4 24 17
2004-03-10 08:36:16 51°22.29 2°55.331 33.2 12.4 24 17.1
2004-03-10 08:36:20 51°22.303 2°55.34 33.2 12.4 24 17.2
2004-03-10 08:36:26 51°22.322 2°55.354 33.3 12.4 24 17.3
2004-03-10 08:36:30 51°22.334 2°55.363 33.3 12.3 25 17.1
2004-03-10 08:36:36 51°22.353 2°55.376 33.4 12.3 24 17.1
2004-03-10 08:36:40 51°22.366 2°55.385 33.3 12.3 24 17.2
2004-03-10 08:36:46 51°22.384 2°55.399 33.2 12.4 25 16.7
2004-03-10 08:36:50 51°22.396 2°55.409 33.9 12.3 25 16.6
2004-03-10 08:36:56 51°22.415 2°55.422 33.8 12.2 25 16.7
2004-03-10 08:37:00 51°22.427 2°55.431 33.4 12.3 24 16.5
2004-03-10 08:37:06 51°22.446 2°55.444 33.3 12.3 24 16.6
2004-03-10 08:37:10 51°22.458 2°55.453 33 12.2 24 16.2
2004-03-10 08:37:16 51°22.477 2°55.467 32.7 12.3 23 16.4
2004-03-10 08:37:20 51°22.49 2°55.476 33.1 12.3 25 16.6
2004-03-10 08:37:26 51°22.508 2°55.489 33 12.2 24 16.3
2004-03-10 08:37:30 51°22.521 2°55.498 33.3 12.1 25 16.3
2004-03-10 08:37:36 51°22.539 2°55.512 33.4 12.3 24 16.3
2004-03-10 08:37:40 51°22.552 2°55.521 33.7 12.3 25 16.7
2004-03-10 08:37:46 51°22.57 2°55.535 33.3 12.2 24 16.3
2004-03-10 08:37:50 51°22.582 2°55.544 33.1 12.1 25 16.3
2004-03-10 08:37:56 51°22.601 2°55.557 33.3 12.2 25 16.5
2004-03-10 08:38:00 51°22.613 2°55.566 33.4 12.2 24 16.5
2004-03-10 08:38:06 51°22.632 2°55.58 33.3 12.2 25 16.6
2004-03-10 08:38:10 51°22.644 2°55.589 33.1 12.3 24 16.4
2004-03-10 08:38:16 51°22.663 2°55.602 33.4 12.3 25 16.6
2004-03-10 08:38:20 51°22.675 2°55.611 33.5 12.3 25 16.6
2004-03-10 08:38:26 51°22.694 2°55.625 33.3 12.3 25 16.7
2004-03-10 08:38:30 51°22.707 2°55.634 33.1 12.4 24 16.6
2004-03-10 08:38:35 51°22.723 2°55.645 32.9 12.4 24 16.7
2004-03-10 08:38:40 51°22.738 2°55.656 32.9 12.4 25 16.6
2004-03-10 08:38:46 51°22.757 2°55.67 33.3 12.4 24 16.7
2004-03-10 08:38:50 51°22.77 2°55.679 33.2 12.4 25 16.5
2004-03-10 08:38:56 51°22.789 2°55.693 33.6 12.3 25 16.6
2004-03-10 08:39:00 51°22.801 2°55.702 33.6 12.4 25 16.9
2004-03-10 08:39:05 51°22.817 2°55.713 33.5 12.3 24 16.6
2004-03-10 08:39:10 51°22.832 2°55.724 33.1 12.4 24 16.7
2004-03-10 08:39:16 51°22.851 2°55.738 33 12.4 24 16.9
2004-03-10 08:39:20 51°22.863 2°55.747 33.3 12.4 24 16.9
2004-03-10 08:39:26 51°22.882 2°55.761 33.6 12.3 25 16.6
2004-03-10 08:39:30 51°22.895 2°55.77 33.9 12.4 24 16.8
2004-03-10 08:39:36 51°22.913 2°55.783 33.4 12.4 24 16.8
2004-03-10 08:39:40 51°22.926 2°55.792 33.3 12.5 25 16.7
2004-03-10 08:39:44 51°22.938 2°55.801 33.2 12.2 25 17
2004-03-10 08:39:50 51°22.957 2°55.815 33.7 12.2 25 17
2004-03-10 08:39:55 51°22.972 2°55.826 33.4 12.4 24 17
2004-03-10 08:40:00 51°22.988 2°55.837 33.3 12.4 24 16.9
2004-03-10 08:40:06 51°23.007 2°55.851 33.2 12.3 24 17.1
2004-03-10 08:40:10 51°23.019 2°55.86 33.2 12.4 24 17.2
2004-03-10 08:40:16 51°23.038 2°55.874 33.5 12.2 25 16.9
2004-03-10 08:40:20 51°23.05 2°55.883 33.6 12.2 25 17.3
2004-03-10 08:40:26 51°23.069 2°55.897 33.3 12.4 25 17.4
2004-03-10 08:40:30 51°23.081 2°55.906 33.3 12.3 25 17.3
2004-03-10 08:40:34 51°23.094 2°55.915 33.5 12.4 25 17.1
2004-03-10 08:40:40 51°23.112 2°55.929 33.3 12.2 25 17.5
2004-03-10 08:40:46 51°23.131 2°55.942 33.3 12.4 25 17.8
2004-03-10 08:40:50 51°23.143 2°55.952 33.4 12.2 24 17.4
2004-03-10 08:40:54 51°23.155 2°55.96 33.3 12.2 24 17.5
2004-03-10 08:41:00 51°23.174 2°55.973 32.7 12.2 24 17.8
2004-03-10 08:41:04 51°23.187 2°55.982 32.4 12.2 24 17.6
2004-03-10 08:41:10 51°23.205 2°55.995 32.6 12.1 25 17.4
2004-03-10 08:41:16 51°23.223 2°56.009 33.3 12.1 25 17.7
2004-03-10 08:41:20 51°23.235 2°56.018 33.8 12.2 25 17.9
2004-03-10 08:41:26 51°23.254 2°56.032 33.6 12.2 24 17.9
2004-03-10 08:41:30 51°23.266 2°56.041 33.2 12.3 25 17.9
2004-03-10 08:41:36 51°23.285 2°56.054 33 12.3 25 18.1
2004-03-10 08:41:40 51°23.297 2°56.063 33.2 12.3 24 18
2004-03-10 08:41:46 51°23.316 2°56.077 33.5 12.2 25 18.1
2004-03-10 08:41:50 51°23.328 2°56.086 33.2 12.3 24 18
2004-03-10 08:41:56 51°23.347 2°56.1 32.9 12.3 24 18.1
2004-03-10 08:42:00 51°23.359 2°56.108 33.2 12.3 24 17.8
2004-03-10 08:42:06 51°23.378 2°56.122 33.3 12.2 24 17.7
2004-03-10 08:42:10 51°23.39 2°56.131 33.2 12.3 25 17.8
2004-03-10 08:42:16 51°23.409 2°56.144 33.3 12.2 25 17.8
2004-03-10 08:42:20 51°23.421 2°56.153 33.6 12.2 24 17.5
2004-03-10 08:42:26 51°23.439 2°56.166 33.4 12.2 25 17.7
2004-03-10 08:42:30 51°23.452 2°56.175 33.3 12 23 17.6
2004-03-10 08:42:36 51°23.47 2°56.188 32.9 12 25 16.8
2004-03-10 08:42:40 51°23.482 2°56.197 33.4 12.1 25 17.5
2004-03-10 08:42:46 51°23.5 2°56.211 33.5 12.2 25 17
2004-03-10 08:42:50 51°23.512 2°56.219 33.7 12.1 24 16.9
2004-03-10 08:42:56 51°23.531 2°56.232 33.3 12.1 24 16.4
2004-03-10 08:43:00 51°23.543 2°56.241 32.9 12.1 24 16.2
2004-03-10 08:43:06 51°23.561 2°56.254 32.9 12.1 24 16.2
2004-03-10 08:43:10 51°23.573 2°56.263 33.1 12 24 16.4
2004-03-10 08:43:16 51°23.591 2°56.277 33.4 12 25 15.5
2004-03-10 08:43:20 51°23.604 2°56.286 33.4 12.1 24 16.4
2004-03-10 08:43:25 51°23.619 2°56.297 33.2 12 25 16.4
2004-03-10 08:43:30 51°23.634 2°56.308 33.5 12 25 15.4
2004-03-10 08:43:36 51°23.652 2°56.321 33.5 12 25 15
2004-03-10 08:43:40 51°23.664 2°56.33 33.3 12.1 25 17
2004-03-10 08:43:46 51°23.683 2°56.344 33.4 12 25 16.4
2004-03-10 08:43:50 51°23.695 2°56.353 33.8 12.2 26 15.6
2004-03-10 08:43:55 51°23.71 2°56.364 33.8 12.1 25 14.6
2004-03-10 08:44:00 51°23.724 2°56.375 33.3 11.9 25 11.5
2004-03-10 08:44:06 51°23.742 2°56.389 33.7 11.7 25 13.6
2004-03-10 08:44:10 51°23.754 2°56.398 33.4 11.9 25 14.4
2004-03-10 08:44:16 51°23.772 2°56.411 33.1 11.9 25 14.8
2004-03-10 08:44:20 51°23.784 2°56.42 33.3 12 25 14.2
2004-03-10 08:44:26 51°23.802 2°56.434 33.5 12 25 12.9
2004-03-10 08:44:30 51°23.814 2°56.442 33.2 11.9 25 15.1
2004-03-10 08:44:35 51°23.829 2°56.454 33.2 11.9 26 15.2
2004-03-10 08:44:40 51°23.845 2°56.465 33.3 12.2 25 14.2
2004-03-10 08:44:46 51°23.863 2°56.479 33.1 12.2 25 13
2004-03-10 08:44:50 51°23.875 2°56.488 33.5 11.9 26 14.4
2004-03-10 08:44:56 51°23.893 2°56.502 33.7 12 26 14.3
2004-03-10 08:45:00 51°23.905 2°56.511 33.7 11.9 25 13.6
2004-03-10 08:45:06 51°23.922 2°56.524 33.3 12 25 12.8
2004-03-10 08:45:10 51°23.934 2°56.533 33.3 11.9 25 14.6
2004-03-10 08:45:15 51°23.949 2°56.544 33.3 12 25 14.7
2004-03-10 08:45:20 51°23.964 2°56.556 33 11.9 26 13.2
2004-03-10 08:45:25 51°23.979 2°56.567 33.4 11.9 25 13.8
2004-03-10 08:45:30 51°23.994 2°56.579 33.6 11.9 25 14.8
2004-03-10 08:45:36 51°24.012 2°56.591 33.2 12 24 12.7
2004-03-10 08:45:40 51°24.024 2°56.601 33.2 11.9 26 14.3
2004-03-10 08:45:46 51°24.042 2°56.614 33.3 12 24 13.8
2004-03-10 08:45:50 51°24.054 2°56.623 33.4 11.7 27 13.6
2004-03-10 08:45:56 51°24.072 2°56.637 33.8 11.7 25 14.4
2004-03-10 08:46:00 51°24.084 2°56.646 33.9 11.9 25 14
2004-03-10 08:46:05 51°24.099 2°56.657 33.7 11.9 25 13
2004-03-10 08:46:09 51°24.111 2°56.666 33 11.8 25 11.2
2004-03-10 08:46:15 51°24.129 2°56.679 33.2 11.8 24 13.1
2004-03-10 08:46:20 51°24.144 2°56.69 32.6 11.8 24 13.5
2004-03-10 08:46:25 51°24.159 2°56.701 32.9 12 24 14.3
2004-03-10 08:46:29 51°24.171 2°56.71 33.4 12.1 25 15.1
2004-03-10 08:46:35 51°24.189 2°56.724 33.3 12.1 25 14.7
2004-03-10 08:46:39 51°24.201 2°56.733 33.4 12.1 26 13.3
2004-03-10 08:46:45 51°24.22 2°56.745 33.3 12 24 14
2004-03-10 08:46:50 51°24.235 2°56.757 32.8 12 24 15.5
2004-03-10 08:46:55 51°24.25 2°56.768 32.6 12.1 24 15.9
2004-03-10 08:46:59 51°24.262 2°56.777 33.1 12 25 16
2004-03-10 08:47:04 51°24.278 2°56.789 33.6 12.1 25 15.9
2004-03-10 08:47:09 51°24.293 2°56.8 33.5 12 25 15
2004-03-10 08:47:16 51°24.314 2°56.816 33.3 11.9 25 12.7
2004-03-10 08:47:19 51°24.323 2°56.822 33.3 12 25 14.4
2004-03-10 08:47:23 51°24.335 2°56.831 33.1 11.8 24 15.8
2004-03-10 08:47:29 51°24.353 2°56.844 33.4 11.9 25 16.2
2004-03-10 08:47:33 51°24.365 2°56.853 33.7 12 25 15.6
2004-03-10 08:47:39 51°24.383 2°56.866 33.3 11.9 25 15.1
2004-03-10 08:47:45 51°24.401 2°56.879 33 11.9 24 14.6
2004-03-10 08:47:49 51°24.413 2°56.887 31.7 12 22 15.5
2004-03-10 08:47:56 51°24.435 2°56.9 31.1 11.9 22 16.1
2004-03-10 08:47:59 51°24.444 2°56.906 30.5 12 21 16.3
2004-03-10 08:48:05 51°24.463 2°56.919 30.8 12.1 23 16.5
2004-03-10 08:48:10 51°24.478 2°56.929 31.3 12 24 16.5
2004-03-10 08:48:13 51°24.487 2°56.935 31.4 12 24 16.8
2004-03-10 08:48:20 51°24.508 2°56.95 31.8 11.9 23 16.6
2004-03-10 08:48:23 51°24.517 2°56.956 31.4 11.9 22 16.5
2004-03-10 08:48:29 51°24.535 2°56.967 31.1 11.9 22 16.3
2004-03-10 08:48:35 51°24.554 2°56.979 30.8 11.9 22 16.9
2004-03-10 08:48:39 51°24.566 2°56.987 30.9 12 22 16.9
2004-03-10 08:48:45 51°24.585 2°56.999 30.6 12 22 17.4
2004-03-10 08:48:50 51°24.6 2°57.01 30.7 12.1 23 17.7
2004-03-10 08:48:55 51°24.616 2°57.02 30.9 11.9 23 17.9
2004-03-10 08:49:00 51°24.631 2°57.029 30.8 11.9 23 18
2004-03-10 08:49:06 51°24.65 2°57.041 30.8 12 22 18
2004-03-10 08:49:09 51°24.659 2°57.047 30.8 12 21 18
2004-03-10 08:49:13 51°24.672 2°57.055 30.4 12.2 21 18.2
2004-03-10 08:49:19 51°24.691 2°57.066 30.3 12.1 21 18.5
2004-03-10 08:49:26 51°24.712 2°57.08 30.2 12.1 21 18.8
2004-03-10 08:49:30 51°24.725 2°57.089 31 12.1 23 18.7
2004-03-10 08:49:36 51°24.743 2°57.102 31.2 12.1 24 19.1
2004-03-10 08:49:40 51°24.755 2°57.11 31.8 12 23 19.2
2004-03-10 08:49:46 51°24.773 2°57.122 31.3 12.1 22 19.3
2004-03-10 08:49:50 51°24.786 2°57.13 31.2 12 22 19.1
2004-03-10 08:49:56 51°24.804 2°57.142 31.2 12.1 22 19.6
2004-03-10 08:50:00 51°24.816 2°57.15 31 12.1 23 19.5
2004-03-10 08:50:06 51°24.835 2°57.163 31 12.1 23 19.5
2004-03-10 08:50:10 51°24.847 2°57.171 31.3 12 22 20
2004-03-10 08:50:14 51°24.86 2°57.179 31 11.9 22 19.8
2004-03-10 08:50:20 51°24.878 2°57.191 30.9 12 23 19.8
2004-03-10 08:50:26 51°24.896 2°57.203 31.4 11.9 23 20.3
2004-03-10 08:50:30 51°24.908 2°57.212 31.7 11.8 24 20.4
2004-03-10 08:50:35 51°24.923 2°57.221 32 11.9 22 20.2
2004-03-10 08:50:40 51°24.939 2°57.232 31.4 11.9 22 20.4
2004-03-10 08:50:45 51°24.954 2°57.241 31.1 12 22 20.5
2004-03-10 08:50:50 51°24.97 2°57.252 31 12 22 20.6
2004-03-10 08:50:55 51°24.985 2°57.262 30.8 11.9 23 20.8
2004-03-10 08:50:59 51°24.997 2°57.27 31.1 11.9 23 21.3
2004-03-10 08:51:05 51°25.015 2°57.282 31.8 11.8 24 21.1
2004-03-10 08:51:10 51°25.029 2°57.292 31.7 11.5 23 21
2004-03-10 08:51:15 51°25.045 2°57.302 31.4 11.6 22 21.1
2004-03-10 08:51:20 51°25.06 2°57.312 31.2 11.6 22 21.5
2004-03-10 08:51:25 51°25.075 2°57.323 31.1 11.8 22 21.4
2004-03-10 08:51:30 51°25.09 2°57.332 31.5 12 22 21.6
2004-03-10 08:51:35 51°25.106 2°57.343 31.2 12 23 22
2004-03-10 08:51:39 51°25.118 2°57.351 31.5 12 23 22
2004-03-10 08:51:46 51°25.139 2°57.366 31.4 12 24 22
2004-03-10 08:51:49 51°25.148 2°57.373 31.7 12 24 22.1
2004-03-10 08:51:56 51°25.17 2°57.388 31.9 12 24 22.6
2004-03-10 08:52:00 51°25.182 2°57.396 31.4 11.8 23 22.6
2004-03-10 08:52:06 51°25.199 2°57.409 31.2 11.6 24 22
2004-03-10 08:52:09 51°25.208 2°57.415 31.5 11.8 24 22.6
2004-03-10 08:52:16 51°25.229 2°57.429 31.5 11.8 24 22.5
2004-03-10 08:52:19 51°25.238 2°57.435 31.1 11.9 22 22.7
2004-03-10 08:52:25 51°25.257 2°57.448 30.8 11.9 23 22.9
2004-03-10 08:52:30 51°25.272 2°57.458 30.9 12 23 22.8
2004-03-10 08:52:35 51°25.287 2°57.468 30.8 12 23 23.3
2004-03-10 08:52:40 51°25.302 2°57.479 31.2 11.8 23 23
2004-03-10 08:52:43 51°25.311 2°57.485 31.5 12 23 22.8
2004-03-10 08:52:50 51°25.332 2°57.5 31.8 11.9 24 23
2004-03-10 08:52:56 51°25.351 2°57.513 31.4 11.9 23 23.1
2004-03-10 08:53:00 51°25.363 2°57.521 31.3 12 23 23.3
2004-03-10 08:53:06 51°25.381 2°57.534 31.5 12 24 23.5
2004-03-10 08:53:10 51°25.393 2°57.542 31.2 12 24 23.3
2004-03-10 08:53:16 51°25.411 2°57.554 31.4 12.1 23 23.2
2004-03-10 08:53:20 51°25.424 2°57.563 30.9 12.1 23 23.1
2004-03-10 08:53:26 51°25.442 2°57.576 31.2 12.1 24 23.3
2004-03-10 08:53:30 51°25.455 2°57.585 31.2 12.2 24 23.3
2004-03-10 08:53:36 51°25.473 2°57.597 31.4 12.1 24 23.3
2004-03-10 08:53:40 51°25.485 2°57.606 31.7 12.2 24 23.5
2004-03-10 08:53:46 51°25.504 2°57.619 31.7 12.1 24 23.4
2004-03-10 08:53:50 51°25.516 2°57.628 30.9 12.1 24 23.2
2004-03-10 08:53:56 51°25.535 2°57.64 31.2 12.2 23 23
2004-03-10 08:54:00 51°25.547 2°57.648 31.1 12 24 22.7
2004-03-10 08:54:06 51°25.565 2°57.661 31.1 11.9 24 23
2004-03-10 08:54:10 51°25.577 2°57.67 31.2 11.8 24 22.6
2004-03-10 08:54:16 51°25.595 2°57.682 31.3 11.8 23 22.6
2004-03-10 08:54:20 51°25.607 2°57.69 31.4 11.9 23 22.7
2004-03-10 08:54:26 51°25.625 2°57.703 30.9 11.9 23 23.1
2004-03-10 08:54:30 51°25.637 2°57.711 30.8 11.9 23 23
2004-03-10 08:54:36 51°25.656 2°57.724 30.9 12 24 23
2004-03-10 08:54:40 51°25.668 2°57.732 31.6 12 24 23.2
2004-03-10 08:54:46 51°25.686 2°57.745 31.4 12 23 23.1
2004-03-10 08:54:50 51°25.699 2°57.754 31.3 12.2 24 23
2004-03-10 08:54:56 51°25.717 2°57.767 31.3 12.1 23 23.1
2004-03-10 08:55:00 51°25.729 2°57.775 31.3 12 24 23
2004-03-10 08:55:06 51°25.748 2°57.788 31.3 12.1 24 22.8
2004-03-10 08:55:10 51°25.76 2°57.797 31.7 12.1 24 22.6
2004-03-10 08:55:15 51°25.775 2°57.807 31.4 12.1 23 22.6
2004-03-10 08:55:20 51°25.791 2°57.818 31.3 12.1 24 22.4
2004-03-10 08:55:26 51°25.809 2°57.832 31.6 12.2 24 22.3
2004-03-10 08:55:30 51°25.822 2°57.84 31.6 12.2 23 22.3
2004-03-10 08:55:36 51°25.84 2°57.853 31 11.9 23 22.4
2004-03-10 08:55:40 51°25.852 2°57.861 30.9 12.1 23 22.3
2004-03-10 08:55:46 51°25.87 2°57.874 31.1 11.8 23 21.5
2004-03-10 08:55:50 51°25.882 2°57.882 30.9 11.9 23 21.5
2004-03-10 08:55:56 51°25.9 2°57.895 31.4 11.9 23 21.6
2004-03-10 08:56:00 51°25.912 2°57.903 31.2 11.8 23 21.2
2004-03-10 08:56:06 51°25.93 2°57.916 31.1 11.8 24 21.1
2004-03-10 08:56:10 51°25.943 2°57.924 31.2 11.9 23 21.1
2004-03-10 08:56:16 51°25.961 2°57.938 31.2 12 23 21.1
2004-03-10 08:56:20 51°25.973 2°57.946 31.3 12 24 21.3
2004-03-10 08:56:25 51°25.988 2°57.957 31.4 12 24 21.3
2004-03-10 08:56:30 51°26.003 2°57.968 31.3 11.9 24 21.1
2004-03-10 08:56:36 51°26.021 2°57.981 31.2 11.9 24 21
2004-03-10 08:56:40 51°26.033 2°57.99 31.4 11.9 25 19.3
2004-03-10 08:56:46 51°26.052 2°58.002 31.6 12 24 19.6
2004-03-10 08:56:50 51°26.064 2°58.011 31.5 11.9 24 20.5
2004-03-10 08:56:55 51°26.079 2°58.022 31.4 12 23 20.3
2004-03-10 08:57:00 51°26.094 2°58.033 31.2 12 25 20
2004-03-10 08:57:06 51°26.112 2°58.046 32 11.6 24 19.8
2004-03-10 08:57:10 51°26.123 2°58.055 31.9 11.8 25 20.1
2004-03-10 08:57:16 51°26.141 2°58.068 31.7 11.8 25 19.8
2004-03-10 08:57:20 51°26.153 2°58.076 31.4 11.6 25 17.3
2004-03-10 08:57:25 51°26.168 2°58.087 31.7 11.7 24 18.6
2004-03-10 08:57:30 51°26.182 2°58.098 31.3 11.6 24 18.8
2004-03-10 08:57:36 51°26.201 2°58.111 31.2 11.6 24 18.8
2004-03-10 08:57:40 51°26.212 2°58.12 31.4 11.9 25 19.2
2004-03-10 08:57:46 51°26.23 2°58.133 31.8 11.7 26 18.6
2004-03-10 08:57:50 51°26.242 2°58.142 31.7 11.8 24 18.7
2004-03-10 08:57:55 51°26.256 2°58.153 31.9 11.8 26 18.5
2004-03-10 08:58:00 51°26.272 2°58.164 31.8 11.8 24 18.2
2004-03-10 08:58:06 51°26.29 2°58.176 31.1 11.9 24 18.7
2004-03-10 08:58:10 51°26.302 2°58.185 30.7 11.9 24 18.8
2004-03-10 08:58:16 51°26.32 2°58.197 30.4 11.9 23 17.2
2004-03-10 08:58:20 51°26.332 2°58.206 30.9 11.8 24 17.9
2004-03-10 08:58:24 51°26.344 2°58.214 31.1 11.8 24 16.8
2004-03-10 08:58:30 51°26.362 2°58.227 31.3 11.9 24 17.8
2004-03-10 08:58:36 51°26.38 2°58.241 31.3 11.9 24 18.1
2004-03-10 08:58:40 51°26.392 2°58.25 31.5 11.9 25 16.4
2004-03-10 08:58:46 51°26.41 2°58.262 31.4 11.9 24 15.8
2004-03-10 08:58:50 51°26.422 2°58.271 31.2 11.9 25 16.8
2004-03-10 08:58:55 51°26.437 2°58.282 31.4 11.9 25 16.6
2004-03-10 08:59:00 51°26.452 2°58.293 31.4 11.9 24 15
2004-03-10 08:59:06 51°26.47 2°58.305 31 11.8 23 16.3
2004-03-10 08:59:10 51°26.482 2°58.314 30.6 11.9 24 15.5
2004-03-10 08:59:16 51°26.5 2°58.328 31.2 12 25 16.1
2004-03-10 08:59:20 51°26.511 2°58.337 32.2 11.9 26 16.2
2004-03-10 08:59:26 51°26.529 2°58.351 32.5 11.9 26 16.6
2004-03-10 08:59:30 51°26.541 2°58.36 32.7 11.8 27 17
2004-03-10 08:59:35 51°26.556 2°58.372 33.1 11.7 27 16.7
2004-03-10 08:59:40 51°26.57 2°58.384 33.3 11.6 27 17.1
2004-03-10 08:59:46 51°26.587 2°58.399 33.7 11.6 28 17.3
2004-03-10 08:59:50 51°26.599 2°58.408 33.9 11.8 26 17
2004-03-10 08:59:56 51°26.617 2°58.422 33.4 11.8 26 17.5
2004-03-10 09:00:00 51°26.629 2°58.432 33.6 11.9 27 15.9
2004-03-10 09:00:06 51°26.646 2°58.446 33.9 11.9 27 16.6
2004-03-10 09:00:10 51°26.658 2°58.456 33.4 11.9 26 16.8
2004-03-10 09:00:16 51°26.676 2°58.47 32.9 11.8 26 17.3
2004-03-10 09:00:20 51°26.688 2°58.479 32.9 11.8 27 17.3
2004-03-10 09:00:26 51°26.705 2°58.493 33.5 11.9 26 17.3
2004-03-10 09:00:30 51°26.717 2°58.502 33.3 11.9 26 17.6
2004-03-10 09:00:35 51°26.732 2°58.514 32.8 11.8 26 17.9
2004-03-10 09:00:40 51°26.746 2°58.525 32.7 11.8 26 17.4
2004-03-10 09:00:46 51°26.764 2°58.539 33.2 11.8 27 15.7
2004-03-10 09:00:50 51°26.775 2°58.549 33.4 11.7 28 16.3
2004-03-10 09:00:56 51°26.793 2°58.563 34 11.7 28 16.5
2004-03-10 09:01:00 51°26.804 2°58.573 33.8 11.7 28 16.6
2004-03-10 09:01:06 51°26.822 2°58.587 33.7 11.8 27 16.9
2004-03-10 09:01:10 51°26.833 2°58.597 33.4 11.7 28 17.3
2004-03-10 09:01:15 51°26.848 2°58.609 33.8 11.8 27 14.7
2004-03-10 09:01:20 51°26.862 2°58.62 33.5 11.6 27 15.4
2004-03-10 09:01:26 51°26.88 2°58.635 33.2 11.7 27 15.2
2004-03-10 09:01:30 51°26.891 2°58.645 33 11.5 28 16
2004-03-10 09:01:35 51°26.905 2°58.656 33.6 11.6 26 15
2004-03-10 09:01:40 51°26.919 2°58.668 33.3 11.5 27 15.4
2004-03-10 09:01:44 51°26.931 2°58.677 33.3 11.6 27 16.2
2004-03-10 09:01:50 51°26.948 2°58.692 33.7 11.7 29 15.3
2004-03-10 09:01:56 51°26.965 2°58.705 33.7 11.8 26 15.8
2004-03-10 09:02:00 51°26.977 2°58.715 33.1 11.7 28 16.1
2004-03-10 09:02:06 51°26.994 2°58.729 33.3 11.7 28 15.9
2004-03-10 09:02:10 51°27.006 2°58.738 33.2 11.7 27 16.2
2004-03-10 09:02:15 51°27.02 2°58.75 33.4 11.7 27 16.7
2004-03-10 09:02:20 51°27.035 2°58.762 33.4 11.7 27 17.1
2004-03-10 09:02:25 51°27.049 2°58.774 33.3 11.7 27 16.8
2004-03-10 09:02:30 51°27.064 2°58.787 34 11.9 28 16.7
2004-03-10 09:02:36 51°27.081 2°58.801 33.6 11.9 28 16.7
2004-03-10 09:02:40 51°27.093 2°58.812 34.2 11.9 30 16.6
2004-03-10 09:02:45 51°27.107 2°58.825 35 11.8 29 16.7
2004-03-10 09:02:51 51°27.124 2°58.841 35.9 11.9 31 16.8
2004-03-10 09:02:56 51°27.138 2°58.855 36.5 11.9 31 13.5
2004-03-10 09:03:00 51°27.149 2°58.866 37 11.7 31 14.2
2004-03-10 09:03:06 51°27.166 2°58.881 36.7 11.7 30 15
2004-03-10 09:03:10 51°27.177 2°58.892 36.5 11.7 31 13.1
2004-03-10 09:03:16 51°27.193 2°58.908 37 11.6 32 14
2004-03-10 09:03:20 51°27.204 2°58.92 37.5 11.6 33 14.3
2004-03-10 09:03:26 51°27.221 2°58.936 38.2 11.6 33 14.7
2004-03-10 09:03:30 51°27.231 2°58.947 38 11.6 32 15.2
2004-03-10 09:03:36 51°27.248 2°58.963 37.7 11.6 32 15.1
2004-03-10 09:03:40 51°27.259 2°58.974 37.9 11.7 33 14.2
2004-03-10 09:03:46 51°27.275 2°58.991 38.1 11.8 32 15.5
2004-03-10 09:03:50 51°27.286 2°59.001 37.9 11.4 31 15.8
2004-03-10 09:03:56 51°27.303 2°59.018 37.6 11.5 32 14.5
2004-03-10 09:04:00 51°27.314 2°59.028 37.9 11.6 31 14.9
2004-03-10 09:04:06 51°27.33 2°59.045 37.7 11.6 32 15.6
2004-03-10 09:04:10 51°27.341 2°59.055 37.8 11.7 32 16.2
2004-03-10 09:04:16 51°27.358 2°59.072 37.7 11.6 32 16.4
2004-03-10 09:04:20 51°27.369 2°59.083 37.9 11.6 32 16.8
2004-03-10 09:04:26 51°27.385 2°59.099 38.1 11.5 32 17.2
2004-03-10 09:04:30 51°27.396 2°59.109 37.9 11.6 31 17.2
2004-03-10 09:04:36 51°27.412 2°59.126 37.3 11.6 31 17.6
2004-03-10 09:04:40 51°27.423 2°59.136 37.5 11.6 31 17.8
2004-03-10 09:04:44 51°27.435 2°59.147 37.7 11.7 31 17.7
2004-03-10 09:04:50 51°27.451 2°59.164 37.5 11.7 32 17.7
2004-03-10 09:04:55 51°27.464 2°59.178 37.3 11.6 33 18
2004-03-10 09:05:00 51°27.477 2°59.195 40.3 11.6 37 18
2004-03-10 09:05:06 51°27.492 2°59.215 43.5 11.7 39 18
2004-03-10 09:05:10 51°27.501 2°59.23 45.7 11.8 44 18.3
2004-03-10 09:05:16 51°27.515 2°59.252 48 11.8 45 17.6
2004-03-10 09:05:20 51°27.524 2°59.267 49.3 11.8 45 17.3
2004-03-10 09:05:26 51°27.537 2°59.29 50.5 11.8 47 18.2
2004-03-10 09:05:30 51°27.546 2°59.305 51.4 11.8 48 18.5